Time;durP1;ratioP1;P1;durP2;ratioP2;P2;SDS_P1;SDS_P2;PMS_P1;PMS_P2;Temp;Humidity;BMP_temperature;BMP_pressure;BME280_temperature;BME280_humidity;BME280_pressure;Samples;Min_cycle;Max_cycle;Signal;HPM_P1;HPM_P2
2022/02/24 00:01:45;;;;;;;14.20;4.93;;;7.60;92.40;;;;;;5003777;28;21028;-81
2022/02/24 00:04:12;;;;;;;11.13;4.30;;;7.60;92.10;;;;;;5004011;28;20489;-81
2022/02/24 00:06:42;;;;;;;16.33;4.57;;;7.80;91.50;;;;;;5003499;28;20933;-81
2022/02/24 00:09:10;;;;;;;11.47;4.10;;;7.90;91.70;;;;;;5002607;28;20461;-81
2022/02/24 00:11:40;;;;;;;12.13;4.73;;;8.00;91.50;;;;;;5003460;28;20504;-81
2022/02/24 00:14:07;;;;;;;6.77;4.13;;;7.80;92.20;;;;;;5002746;28;20456;-81
2022/02/24 00:16:36;;;;;;;12.60;5.30;;;7.90;92.50;;;;;;5002857;28;20460;-81
2022/02/24 00:19:04;;;;;;;12.83;4.50;;;7.70;92.40;;;;;;5002491;28;20548;-81
2022/02/24 00:21:31;;;;;;;12.43;5.37;;;7.80;93.10;;;;;;5003138;28;20461;-81
2022/02/24 00:24:01;;;;;;;12.23;4.13;;;7.80;93.00;;;;;;5003005;28;20529;-81
2022/02/24 00:26:29;;;;;;;15.23;4.57;;;7.80;92.30;;;;;;5002668;28;20545;-81
2022/02/24 00:28:56;;;;;;;11.07;4.73;;;7.70;92.60;;;;;;5002366;28;20549;-81
2022/02/24 00:31:23;;;;;;;14.37;4.73;;;7.80;92.80;;;;;;5002162;28;20485;-81
2022/02/24 00:33:53;;;;;;;25.23;4.83;;;7.80;93.00;;;;;;5003071;28;20489;-81
2022/02/24 00:36:19;;;;;;;7.27;3.70;;;7.80;93.10;;;;;;5002658;28;20482;-81
2022/02/24 00:38:46;;;;;;;10.00;4.10;;;7.80;92.90;;;;;;5001840;28;20466;-81
2022/02/24 00:41:14;;;;;;;16.00;4.10;;;7.90;93.00;;;;;;5003247;28;20482;-81
2022/02/24 00:43:42;;;;;;;13.97;4.57;;;8.00;92.40;;;;;;5002370;28;20454;-81
2022/02/24 00:46:09;;;;;;;12.70;4.30;;;8.00;92.00;;;;;;5003025;28;20469;-81
2022/02/24 00:48:36;;;;;;;12.37;3.97;;;7.90;92.40;;;;;;5002118;28;20451;-81
2022/02/24 00:51:03;;;;;;;7.47;3.60;;;8.00;91.90;;;;;;5001875;28;20454;-80
2022/02/24 00:53:30;;;;;;;6.50;3.50;;;8.10;91.10;;;;;;5002326;28;20458;-80
2022/02/24 00:55:57;;;;;;;10.83;4.27;;;8.00;91.80;;;;;;5002076;28;20450;-81
2022/02/24 00:58:26;;;;;;;10.93;4.70;;;8.00;92.10;;;;;;5002224;28;20465;-80
2022/02/24 01:00:55;;;;;;;14.47;5.00;;;7.90;91.70;;;;;;5001463;28;20458;-81
2022/02/24 01:03:24;;;;;;;10.13;3.63;;;8.10;91.60;;;;;;5002492;28;20478;-81
2022/02/24 01:05:51;;;;;;;13.00;3.97;;;8.00;91.10;;;;;;5002161;28;20462;-81
2022/02/24 01:08:19;;;;;;;8.70;3.40;;;8.00;91.10;;;;;;5003224;28;20464;-81
2022/02/24 01:10:47;;;;;;;9.80;3.70;;;8.10;91.50;;;;;;5002903;28;20466;-81
2022/02/24 01:13:18;;;;;;;9.70;3.23;;;8.00;91.20;;;;;;5002171;28;20540;-80
2022/02/24 01:15:48;;;;;;;11.73;4.00;;;7.80;91.80;;;;;;5002590;28;20469;-81
2022/02/24 01:18:20;;;;;;;10.73;3.43;;;7.80;92.10;;;;;;5001739;28;20458;-82
2022/02/24 01:20:50;;;;;;;18.17;3.60;;;8.00;92.10;;;;;;5002246;28;20450;-79
2022/02/24 01:23:21;;;;;;;10.90;3.70;;;7.90;92.40;;;;;;5001576;28;20505;-80
2022/02/24 01:25:50;;;;;;;11.20;3.43;;;7.80;91.60;;;;;;5002143;28;20457;-81
2022/02/24 01:28:25;;;;;;;9.17;3.87;;;7.80;91.60;;;;;;5001526;28;20469;-82
2022/02/24 01:30:57;;;;;;;10.80;3.17;;;7.90;90.80;;;;;;4983566;28;20462;-82
2022/02/24 01:33:27;;;;;;;7.67;3.20;;;8.20;90.50;;;;;;4996313;28;20462;-82
2022/02/24 01:36:00;;;;;;;7.43;3.00;;;8.10;89.40;;;;;;5002238;28;20537;-82
2022/02/24 01:38:32;;;;;;;9.73;3.10;;;8.20;90.20;;;;;;5002284;28;20454;-82
2022/02/24 01:41:00;;;;;;;7.70;2.97;;;8.10;89.80;;;;;;5002671;28;20446;-82
2022/02/24 01:43:33;;;;;;;9.30;3.90;;;8.20;88.10;;;;;;4984502;28;20454;-82
2022/02/24 01:46:03;;;;;;;13.30;3.90;;;8.20;89.00;;;;;;5001941;28;20450;-81
2022/02/24 01:48:35;;;;;;;10.83;3.53;;;8.10;90.00;;;;;;5002791;28;20550;-82
2022/02/24 01:51:05;;;;;;;12.97;4.70;;;8.00;90.20;;;;;;4999656;28;20897;-80
2022/02/24 01:53:34;;;;;;;9.57;4.50;;;8.00;90.40;;;;;;4997822;28;20840;-79
2022/02/24 01:56:03;;;;;;;16.00;5.03;;;8.10;90.70;;;;;;4997194;28;21025;-80
2022/02/24 01:58:35;;;;;;;8.83;4.60;;;8.10;90.70;;;;;;4997480;28;20541;-80
2022/02/24 02:01:04;;;;;;;12.37;3.97;;;8.00;90.60;;;;;;5000689;28;20453;-80
2022/02/24 02:03:35;;;;;;;11.67;4.47;;;8.10;90.70;;;;;;5002295;28;20525;-81
2022/02/24 02:06:05;;;;;;;12.50;4.10;;;8.00;89.80;;;;;;5001121;28;20470;-80
2022/02/24 02:08:33;;;;;;;13.97;4.33;;;8.10;88.70;;;;;;5000478;28;20461;-80
2022/02/24 02:11:00;;;;;;;14.60;4.70;;;8.20;88.70;;;;;;4980197;28;20455;-80
2022/02/24 02:13:32;;;;;;;11.40;4.20;;;8.20;89.20;;;;;;4998328;28;20474;-81
2022/02/24 02:16:07;;;;;;;16.70;5.27;;;8.20;89.50;;;;;;5001067;28;20858;-80
2022/02/24 02:18:39;;;;;;;12.17;4.80;;;8.20;90.60;;;;;;5000883;28;20473;-81
2022/02/24 02:21:08;;;;;;;8.77;4.70;;;8.10;90.60;;;;;;5000286;28;20450;-81
2022/02/24 02:23:40;;;;;;;14.77;4.80;;;8.10;89.30;;;;;;5001032;28;20454;-82
2022/02/24 02:26:08;;;;;;;14.53;4.60;;;8.10;89.50;;;;;;5000876;28;20534;-82
2022/02/24 02:28:35;;;;;;;12.50;4.70;;;8.10;89.60;;;;;;5000520;28;20478;-82
2022/02/24 02:31:05;;;;;;;16.57;4.37;;;7.80;90.60;;;;;;5000788;28;20541;-81
2022/02/24 02:33:33;;;;;;;18.47;4.93;;;8.10;90.10;;;;;;5000513;28;20478;-82
2022/02/24 02:36:02;;;;;;;12.13;4.93;;;8.10;90.60;;;;;;4981706;28;20505;-80
2022/02/24 02:38:35;;;;;;;13.60;4.90;;;8.10;90.40;;;;;;4999776;28;20454;-81
2022/02/24 02:41:06;;;;;;;15.77;5.10;;;8.30;89.70;;;;;;5000585;28;20870;-79
2022/02/24 02:43:39;;;;;;;20.60;6.27;;;8.00;89.70;;;;;;5000940;28;20489;-81
2022/02/24 02:46:10;;;;;;;10.57;4.27;;;8.20;90.70;;;;;;5001229;28;20454;-81
2022/02/24 02:48:37;;;;;;;11.80;4.97;;;8.20;90.30;;;;;;5000556;28;20537;-81
2022/02/24 02:51:05;;;;;;;9.50;4.23;;;8.10;88.00;;;;;;5000472;28;20460;-80
2022/02/24 02:53:38;;;;;;;13.50;5.40;;;8.20;89.00;;;;;;5001333;28;20482;-81
2022/02/24 02:56:09;;;;;;;12.87;5.57;;;8.20;90.50;;;;;;5001255;28;20458;-81
2022/02/24 02:58:41;;;;;;;14.43;5.93;;;8.10;90.30;;;;;;5001738;28;20488;-82
2022/02/24 03:01:09;;;;;;;14.70;6.07;;;8.00;90.70;;;;;;5000012;28;20454;-82
2022/02/24 03:03:36;;;;;;;16.37;5.70;;;8.00;91.50;;;;;;5001039;28;20438;-82
2022/02/24 03:06:09;;;;;;;10.53;4.80;;;8.00;91.40;;;;;;4997105;28;20445;-80
2022/02/24 03:08:40;;;;;;;15.00;5.90;;;7.90;92.00;;;;;;4999732;28;20516;-81
2022/02/24 03:11:09;;;;;;;15.03;6.00;;;8.00;92.30;;;;;;5000265;28;20458;-81
2022/02/24 03:13:42;;;;;;;11.93;4.97;;;8.10;91.70;;;;;;5000211;28;20462;-80
2022/02/24 03:16:13;;;;;;;18.00;6.43;;;8.10;91.50;;;;;;4999439;28;20801;-80
2022/02/24 03:18:43;;;;;;;10.37;4.30;;;8.00;92.10;;;;;;4999434;28;20954;-81
2022/02/24 03:21:13;;;;;;;14.30;5.60;;;8.00;90.90;;;;;;4999101;28;20462;-81
2022/02/24 03:23:42;;;;;;;15.50;5.83;;;8.00;90.70;;;;;;4998738;28;20446;-81
2022/02/24 03:26:15;;;;;;;12.77;5.43;;;8.10;90.50;;;;;;4999446;28;20461;-79
2022/02/24 03:28:43;;;;;;;14.57;5.87;;;7.90;90.60;;;;;;4999806;28;20465;-81
2022/02/24 03:31:12;;;;;;;16.03;5.97;;;7.90;91.00;;;;;;4982709;28;20450;-82
2022/02/24 03:33:41;;;;;;;19.43;8.13;;;7.90;91.70;;;;;;5002943;28;20516;-80
2022/02/24 03:36:12;;;;;;;17.40;5.83;;;8.20;91.90;;;;;;4983851;28;20459;-81
2022/02/24 03:38:39;;;;;;;20.07;6.37;;;8.00;92.20;;;;;;5006319;28;20473;-82
2022/02/24 03:44:10;;;;;;;14.43;6.80;;;7.90;94.80;;;;;;4958163;28;20505;-80
2022/02/24 03:46:37;;;;;;;19.23;7.17;;;7.80;95.80;;;;;;5002276;28;20457;-82
2022/02/24 03:49:04;;;;;;;12.67;6.57;;;7.80;96.30;;;;;;4994475;28;20451;-82
2022/02/24 03:51:31;;;;;;;23.90;7.03;;;7.70;96.30;;;;;;4983960;28;20482;-82
2022/02/24 03:53:57;;;;;;;12.00;6.13;;;7.70;96.60;;;;;;5004441;28;20847;-82
2022/02/24 03:56:25;;;;;;;26.47;11.67;;;7.60;96.00;;;;;;5001442;28;20449;-82
2022/02/24 03:58:52;;;;;;;20.53;8.47;;;7.70;96.00;;;;;;4999184;28;20457;-82
2022/02/24 04:01:19;;;;;;;16.53;7.90;;;7.70;95.40;;;;;;5002082;28;20457;-82
2022/02/24 04:03:46;;;;;;;16.30;7.70;;;7.60;96.50;;;;;;5004114;28;20450;-82
2022/02/24 04:06:13;;;;;;;20.17;7.90;;;7.50;97.10;;;;;;5004515;28;20454;-82
2022/02/24 04:08:40;;;;;;;13.60;7.57;;;7.60;98.40;;;;;;5002323;28;20453;-81
2022/02/24 04:11:06;;;;;;;15.67;6.97;;;7.60;97.30;;;;;;5004172;28;20545;-82
2022/02/24 04:13:34;;;;;;;14.37;8.60;;;7.50;98.30;;;;;;5003576;28;20503;-81
2022/02/24 04:16:01;;;;;;;18.67;10.83;;;7.60;99.40;;;;;;5003001;28;20955;-82
2022/02/24 04:18:28;;;;;;;12.80;8.00;;;7.40;99.90;;;;;;5002132;28;20457;-82
2022/02/24 04:20:55;;;;;;;15.77;6.30;;;7.50;98.30;;;;;;5002435;28;20450;-82
2022/02/24 04:23:21;;;;;;;17.80;7.50;;;7.70;97.10;;;;;;5002695;28;20466;-82
2022/02/24 04:25:49;;;;;;;15.17;6.40;;;7.60;96.20;;;;;;5002748;28;20466;-82
2022/02/24 04:28:16;;;;;;;24.03;8.73;;;7.70;95.90;;;;;;5000773;28;20529;-81
2022/02/24 04:30:44;;;;;;;16.83;7.60;;;7.80;94.80;;;;;;5002046;28;20458;-78
2022/02/24 04:33:11;;;;;;;12.87;5.63;;;7.90;94.80;;;;;;5001818;28;20488;-81
2022/02/24 04:35:41;;;;;;;12.90;5.60;;;7.90;95.00;;;;;;5001466;28;20454;-80
2022/02/24 04:38:08;;;;;;;12.23;5.47;;;7.80;96.20;;;;;;5001757;28;20450;-82
2022/02/24 04:40:35;;;;;;;13.07;5.80;;;7.70;96.20;;;;;;5000410;28;20450;-83
2022/02/24 04:43:02;;;;;;;10.53;5.37;;;7.70;95.70;;;;;;5001165;28;20875;-82
2022/02/24 04:45:29;;;;;;;11.13;5.67;;;7.60;96.60;;;;;;5002029;28;20456;-82
2022/02/24 04:47:57;;;;;;;11.40;5.13;;;7.50;97.10;;;;;;5000688;28;20454;-82
2022/02/24 04:50:23;;;;;;;11.33;4.70;;;7.50;95.90;;;;;;5001061;28;20454;-81
2022/02/24 04:52:50;;;;;;;16.87;4.87;;;7.60;95.00;;;;;;5000767;28;20482;-82
2022/02/24 04:55:17;;;;;;;11.30;4.10;;;7.50;95.10;;;;;;5003561;28;20453;-82
2022/02/24 04:57:44;;;;;;;13.13;4.37;;;7.60;95.00;;;;;;4998957;28;20458;-82
2022/02/24 05:00:11;;;;;;;9.30;4.00;;;7.70;95.10;;;;;;4998228;28;20465;-82
2022/02/24 05:02:38;;;;;;;9.63;3.90;;;7.60;95.10;;;;;;5000641;28;20469;-82
2022/02/24 05:05:06;;;;;;;6.73;4.03;;;7.80;94.30;;;;;;5000418;28;20461;-82
2022/02/24 05:07:33;;;;;;;10.40;4.20;;;7.90;94.00;;;;;;4998056;28;20466;-83
2022/02/24 05:10:00;;;;;;;14.83;4.03;;;7.80;94.00;;;;;;5003485;28;20457;-87
2022/02/24 05:12:27;;;;;;;13.43;4.20;;;7.90;93.60;;;;;;4999782;28;20998;-82
2022/02/24 05:14:54;;;;;;;14.30;4.17;;;8.00;93.00;;;;;;5000153;28;20454;-82
2022/02/24 05:17:21;;;;;;;10.00;4.23;;;8.00;92.70;;;;;;4999230;28;20454;-82
2022/02/24 05:19:48;;;;;;;13.23;4.10;;;8.00;93.30;;;;;;4994728;28;20454;-83
2022/02/24 05:22:16;;;;;;;14.80;4.47;;;7.80;93.70;;;;;;4987711;28;20481;-83
2022/02/24 05:24:43;;;;;;;15.40;4.20;;;7.80;94.00;;;;;;4994478;28;20450;-82
2022/02/24 05:27:09;;;;;;;17.30;7.50;;;7.80;95.30;;;;;;4999726;28;20458;-83
2022/02/24 05:29:36;;;;;;;14.73;5.27;;;7.60;96.30;;;;;;5002676;28;20450;-83
2022/02/24 05:32:04;;;;;;;6.53;4.27;;;7.70;97.10;;;;;;5000747;28;20474;-82
2022/02/24 05:34:30;;;;;;;8.93;5.10;;;7.60;97.00;;;;;;5001850;28;20474;-82
2022/02/24 05:36:57;;;;;;;9.00;4.83;;;7.60;97.10;;;;;;5000958;28;20450;-82
2022/02/24 05:39:25;;;;;;;9.80;4.53;;;7.70;97.20;;;;;;5002031;28;20447;-82
2022/02/24 05:41:52;;;;;;;21.33;4.90;;;7.70;97.20;;;;;;5002344;28;20473;-83
2022/02/24 05:44:20;;;;;;;15.40;4.47;;;7.70;97.00;;;;;;5001063;28;20450;-83
2022/02/24 05:46:47;;;;;;;12.00;4.90;;;7.70;95.80;;;;;;5001553;28;21041;-82
2022/02/24 05:49:15;;;;;;;11.97;4.83;;;7.70;95.40;;;;;;5002917;28;20454;-83
2022/02/24 05:51:42;;;;;;;7.10;3.93;;;7.90;95.10;;;;;;5001845;28;20483;-83
2022/02/24 05:54:09;;;;;;;12.30;4.40;;;7.90;94.90;;;;;;4999980;28;21070;-83
2022/02/24 05:56:37;;;;;;;31.47;5.83;;;7.90;94.40;;;;;;4981946;28;20455;-82
2022/02/24 05:59:04;;;;;;;7.63;4.40;;;8.00;94.20;;;;;;4989343;28;20454;-82
2022/02/24 06:01:31;;;;;;;10.90;4.03;;;8.00;94.40;;;;;;4999505;28;20488;-82
2022/02/24 06:03:57;;;;;;;15.10;5.23;;;8.00;93.00;;;;;;5001419;28;20462;-83
2022/02/24 06:06:24;;;;;;;8.30;3.80;;;8.00;94.50;;;;;;5003052;28;20455;-80
2022/02/24 06:08:51;;;;;;;16.87;3.90;;;8.00;93.00;;;;;;5000587;28;20457;-82
2022/02/24 06:11:18;;;;;;;12.00;3.80;;;8.10;92.80;;;;;;5000576;28;20454;-83
2022/02/24 06:13:46;;;;;;;9.60;3.73;;;8.10;92.90;;;;;;4999976;28;20499;-82
2022/02/24 06:16:13;;;;;;;18.10;3.73;;;8.10;92.80;;;;;;4999684;28;21107;-83
2022/02/24 06:18:43;;;;;;;6.87;2.90;;;8.10;92.00;;;;;;4990002;28;20971;-83
2022/02/24 06:21:11;;;;;;;13.23;3.60;;;8.20;91.50;;;;;;4999360;28;20842;-81
2022/02/24 06:23:38;;;;;;;10.10;4.10;;;8.30;90.80;;;;;;4999349;28;20482;-81
2022/02/24 06:26:19;;;;;;;8.70;3.50;;;8.20;90.40;;;;;;4998028;28;20823;-81
2022/02/24 06:28:50;;;;;;;14.23;3.50;;;8.20;90.60;;;;;;4998879;28;20474;-81
2022/02/24 06:31:16;;;;;;;9.43;3.20;;;8.30;88.70;;;;;;5001034;28;20459;-82
2022/02/24 06:33:43;;;;;;;5.90;2.10;;;8.40;87.10;;;;;;5002892;28;20473;-81
2022/02/24 06:36:10;;;;;;;11.83;3.43;;;8.50;85.30;;;;;;4999714;28;20509;-81
2022/02/24 06:38:37;;;;;;;11.67;3.50;;;8.40;85.10;;;;;;4996660;28;20485;-81
2022/02/24 06:41:11;;;;;;;9.00;2.77;;;8.50;85.80;;;;;;4998543;28;20468;-81
2022/02/24 06:43:38;;;;;;;7.50;3.40;;;8.40;86.00;;;;;;4996841;28;20454;-81
2022/02/24 06:46:06;;;;;;;8.97;3.00;;;8.60;83.90;;;;;;4998363;28;20458;-82
2022/02/24 06:48:33;;;;;;;11.73;2.83;;;8.50;84.70;;;;;;5001865;28;20454;-82
2022/02/24 06:51:00;;;;;;;11.40;3.20;;;8.50;84.60;;;;;;5000580;28;20512;-82
2022/02/24 06:53:27;;;;;;;13.07;3.00;;;8.50;84.00;;;;;;4998913;28;20477;-80
2022/02/24 06:55:53;;;;;;;12.87;3.23;;;8.60;87.20;;;;;;4998123;28;20470;-81
2022/02/24 06:58:25;;;;;;;9.33;3.50;;;8.60;84.40;;;;;;4997797;28;20522;-82
2022/02/24 07:01:05;;;;;;;;;;;;;;;;;;;;;
2022/02/24 07:03:33;;;;;;;9.60;3.83;;;8.80;84.90;;;;;;4997831;28;20485;-82
2022/02/24 07:06:00;;;;;;;11.10;2.83;;;8.60;85.30;;;;;;4997549;28;20493;-82
2022/02/24 07:08:32;;;;;;;9.30;3.50;;;8.60;85.10;;;;;;4998632;28;20453;-82
2022/02/24 07:10:59;;;;;;;9.07;2.93;;;8.60;85.50;;;;;;4980494;28;20459;-82
2022/02/24 07:13:26;;;;;;;11.50;3.80;;;8.50;86.50;;;;;;4980034;28;20481;-82
2022/02/24 07:16:11;;;;;;;10.30;2.63;;;8.50;86.50;;;;;;4998320;28;20454;-82
2022/02/24 07:18:45;;;;;;;15.97;2.73;;;8.40;84.40;;;;;;5000209;28;20485;-81
2022/02/24 07:21:15;;;;;;;14.50;3.93;;;8.40;84.40;;;;;;5001760;28;20557;-82
2022/02/24 07:23:50;;;;;;;9.57;3.20;;;8.70;83.50;;;;;;4999440;28;20449;-82
2022/02/24 07:26:20;;;;;;;7.67;2.80;;;8.70;81.60;;;;;;5000084;28;20457;-82
2022/02/24 07:29:21;;;;;;;;;;;;;;;;;;;;;
2022/02/24 07:31:50;;;;;;;10.60;2.60;;;9.00;79.20;;;;;;4947170;28;20477;-82
2022/02/24 07:34:19;;;;;;;8.30;3.33;;;8.90;78.80;;;;;;4999055;28;20516;-81
2022/02/24 07:37:03;;;;;;;;;;;;;;;;;;;;;
2022/02/24 07:39:53;;;;;;;9.80;2.90;;;8.90;79.60;;;;;;4999333;28;20484;-81
2022/02/24 07:42:21;;;;;;;8.83;2.60;;;8.90;80.30;;;;;;4987699;28;20478;-83
2022/02/24 07:48:52;;;;;;;;;;;;;;;;;;;;;
2022/02/24 07:51:46;;;;;;;;;;;;;;;;;;;;;
2022/02/24 07:54:13;;;;;;;10.70;2.70;;;8.90;80.20;;;;;;4962267;28;20481;-82
2022/02/24 07:56:59;;;;;;;8.43;2.40;;;9.10;80.80;;;;;;5000120;28;20454;-82
2022/02/24 08:00:08;;;;;;;11.57;2.77;;;9.00;82.00;;;;;;4999615;28;20461;-81
2022/02/24 08:02:35;;;;;;;10.33;3.17;;;8.90;82.10;;;;;;5001217;28;20509;-83
2022/02/24 08:05:02;;;;;;;10.20;3.50;;;9.10;83.40;;;;;;4999896;28;20458;-80
2022/02/24 08:07:31;;;;;;;6.87;3.00;;;8.80;85.20;;;;;;4984115;28;20873;-82
2022/02/24 08:09:57;;;;;;;11.93;3.00;;;9.00;84.00;;;;;;5000279;28;20454;-82
2022/02/24 08:12:39;;;;;;;9.50;3.17;;;9.10;80.70;;;;;;5000389;28;20888;-80
2022/02/24 08:15:07;;;;;;;13.43;3.00;;;9.00;81.20;;;;;;5000810;28;20486;-80
2022/02/24 08:17:34;;;;;;;9.20;2.57;;;9.10;81.50;;;;;;5000614;28;20454;-82
2022/02/24 08:20:01;;;;;;;9.13;2.73;;;9.20;78.90;;;;;;5003683;28;20454;-81
2022/02/24 08:22:28;;;;;;;7.70;2.60;;;9.10;80.10;;;;;;5003013;28;20478;-81
2022/02/24 08:24:56;;;;;;;10.87;2.80;;;9.20;80.60;;;;;;5003570;28;20553;-82
2022/02/24 08:27:23;;;;;;;16.00;2.87;;;9.10;79.70;;;;;;5003330;28;20521;-82
2022/02/24 08:29:50;;;;;;;10.30;3.00;;;9.20;80.30;;;;;;5002521;28;20446;-81
2022/02/24 08:32:17;;;;;;;15.20;3.60;;;9.20;80.30;;;;;;5002830;28;21016;-81
2022/02/24 08:34:45;;;;;;;9.17;3.10;;;9.40;79.30;;;;;;5002654;28;20935;-81
2022/02/24 08:37:15;;;;;;;10.20;3.10;;;9.30;80.60;;;;;;5002352;28;20454;-81
2022/02/24 08:39:42;;;;;;;12.67;4.00;;;9.40;82.70;;;;;;5001055;28;20465;-81
2022/02/24 08:42:12;;;;;;;9.30;2.80;;;9.30;84.20;;;;;;5003085;28;20470;-82
2022/02/24 08:44:39;;;;;;;9.40;3.43;;;9.10;85.60;;;;;;5001818;28;20450;-82
2022/02/24 08:47:06;;;;;;;19.83;3.53;;;9.20;88.00;;;;;;5002642;28;20458;-80
2022/02/24 08:49:38;;;;;;;12.57;3.27;;;8.90;90.30;;;;;;5002860;28;20486;-80
2022/02/24 08:52:06;;;;;;;9.13;3.33;;;8.90;92.10;;;;;;5001223;28;20490;-82
2022/02/24 08:54:33;;;;;;;14.97;3.77;;;8.80;92.90;;;;;;5002038;28;21002;-81
2022/02/24 08:57:01;;;;;;;14.90;4.10;;;8.70;92.90;;;;;;5002606;28;20467;-81
2022/02/24 08:59:29;;;;;;;13.37;4.80;;;8.60;93.60;;;;;;5001430;28;20458;-81
2022/02/24 09:01:57;;;;;;;9.80;4.07;;;8.50;94.30;;;;;;5002351;28;20478;-82
2022/02/24 09:04:23;;;;;;;12.63;4.40;;;8.60;95.70;;;;;;5002446;28;20826;-82
2022/02/24 09:06:50;;;;;;;7.93;3.93;;;8.60;95.50;;;;;;5001830;28;20454;-79
2022/02/24 09:09:18;;;;;;;8.50;4.60;;;8.60;95.00;;;;;;5001347;28;20461;-81
2022/02/24 09:11:48;;;;;;;8.50;5.10;;;8.50;95.50;;;;;;4999812;28;20478;-79
2022/02/24 09:14:14;;;;;;;14.97;4.77;;;8.60;95.70;;;;;;5001387;28;20901;-79
2022/02/24 09:16:43;;;;;;;11.50;3.90;;;8.80;96.10;;;;;;5001280;28;20469;-81
2022/02/24 09:19:17;;;;;;;9.53;3.93;;;8.60;95.40;;;;;;5001248;28;20824;-80
2022/02/24 09:21:43;;;;;;;13.90;4.83;;;8.60;95.90;;;;;;5001322;28;20488;-80
2022/02/24 09:24:10;;;;;;;10.67;4.00;;;8.70;95.90;;;;;;5001011;28;20446;-82
2022/02/24 09:26:37;;;;;;;10.93;5.23;;;8.60;96.40;;;;;;5002832;28;20537;-82
2022/02/24 09:29:05;;;;;;;13.37;5.47;;;8.50;97.00;;;;;;5001845;28;20450;-82
2022/02/24 09:31:32;;;;;;;10.73;6.30;;;8.70;97.50;;;;;;5002102;28;20478;-81
2022/02/24 09:34:00;;;;;;;8.50;5.50;;;8.70;98.00;;;;;;4991544;28;20621;-81
2022/02/24 09:36:27;;;;;;;11.17;6.67;;;8.80;97.80;;;;;;4982241;28;20807;-81
2022/02/24 09:38:54;;;;;;;11.00;9.30;;;8.70;98.10;;;;;;4982103;28;20470;-82
2022/02/24 09:41:23;;;;;;;14.70;7.77;;;8.70;98.60;;;;;;4982254;28;20479;-80
2022/02/24 09:43:50;;;;;;;13.40;8.57;;;8.80;98.80;;;;;;4982848;28;20457;-80
2022/02/24 09:46:18;;;;;;;11.67;10.47;;;8.80;98.70;;;;;;4982028;28;20831;-81
2022/02/24 09:48:46;;;;;;;17.10;11.33;;;8.80;99.90;;;;;;4982029;28;20470;-81
2022/02/24 09:51:16;;;;;;;9.43;8.50;;;8.70;99.90;;;;;;4981623;28;20451;-80
2022/02/24 09:53:43;;;;;;;11.60;10.73;;;8.70;99.90;;;;;;4981954;28;20455;-81
2022/02/24 09:56:16;;;;;;;16.40;14.73;;;8.80;99.90;;;;;;4980540;28;20852;-81
2022/02/24 09:58:42;;;;;;;18.17;14.47;;;8.90;99.90;;;;;;4982086;28;20478;-79
2022/02/24 10:01:12;;;;;;;16.70;15.20;;;8.90;99.90;;;;;;4981430;28;20968;-80
2022/02/24 10:03:41;;;;;;;15.40;12.67;;;8.90;99.90;;;;;;4980585;28;20459;-81
2022/02/24 10:06:09;;;;;;;12.80;11.60;;;8.80;99.90;;;;;;4981845;28;20455;-80
2022/02/24 10:08:53;;;;;;;9.07;8.27;;;8.70;99.90;;;;;;4982404;28;20463;-84
2022/02/24 10:11:21;;;;;;;13.00;9.30;;;8.80;99.90;;;;;;4985375;28;20455;-81
2022/02/24 10:13:59;;;;;;;11.33;8.27;;;9.00;99.90;;;;;;4984018;28;20463;-78
2022/02/24 10:16:27;;;;;;;10.40;6.93;;;9.20;99.50;;;;;;4983785;28;20877;-80
2022/02/24 10:18:55;;;;;;;11.13;6.03;;;9.30;98.20;;;;;;4984745;28;20482;-81
2022/02/24 10:21:22;;;;;;;9.17;5.60;;;9.30;97.60;;;;;;4984101;28;20477;-80
2022/02/24 10:23:52;;;;;;;8.83;7.70;;;9.40;97.60;;;;;;4985752;28;20455;-81
2022/02/24 10:26:19;;;;;;;11.50;7.57;;;9.40;97.80;;;;;;4984719;28;20446;-79
2022/02/24 10:31:48;;;;;;;13.60;6.73;;;9.70;99.10;;;;;;4982542;28;20569;-81
2022/02/24 10:34:17;;;;;;;9.10;7.33;;;10.00;97.60;;;;;;4984366;28;20483;-81
2022/02/24 10:36:44;;;;;;;11.40;7.87;;;10.00;97.80;;;;;;4986090;28;20455;-81
2022/02/24 10:39:22;;;;;;;8.70;6.67;;;10.40;97.50;;;;;;4984628;28;20462;-81
2022/02/24 10:42:22;;;;;;;8.83;5.13;;;10.70;96.60;;;;;;4985014;28;20474;-81
2022/02/24 10:45:06;;;;;;;9.60;4.60;;;11.10;93.90;;;;;;4985453;28;20459;-81
2022/02/24 10:47:33;;;;;;;7.80;3.77;;;11.30;92.20;;;;;;4986124;28;21094;-80
2022/02/24 10:50:04;;;;;;;9.73;3.90;;;11.20;88.80;;;;;;4985153;28;20485;-82
2022/02/24 10:56:23;;;;;;;9.47;5.00;;;10.90;90.00;;;;;;4980709;28;20555;-81
2022/02/24 10:59:16;;;;;;;12.00;4.43;;;11.10;91.80;;;;;;4984951;28;20462;-81
2022/02/24 11:02:15;;;;;;;11.80;4.03;;;11.20;89.60;;;;;;4984851;28;20471;-81
2022/02/24 11:04:45;;;;;;;10.80;4.40;;;11.20;88.80;;;;;;4984691;28;20455;-82
2022/02/24 11:07:12;;;;;;;8.90;3.33;;;11.20;88.90;;;;;;4984455;28;20461;-82
2022/02/24 11:09:41;;;;;;;6.43;3.23;;;11.20;86.90;;;;;;4984889;28;20491;-82
2022/02/24 11:12:11;;;;;;;9.43;3.80;;;11.20;88.00;;;;;;4985769;28;20510;-80
2022/02/24 11:14:39;;;;;;;14.97;4.47;;;11.20;88.30;;;;;;4984839;28;20483;-81
2022/02/24 11:17:10;;;;;;;9.33;3.80;;;10.90;85.50;;;;;;4985594;28;20458;-82
2022/02/24 11:19:38;;;;;;;9.87;4.33;;;10.70;86.60;;;;;;4984886;28;20975;-82
2022/02/24 11:22:06;;;;;;;10.10;4.13;;;10.50;87.60;;;;;;4984067;28;20479;-82
2022/02/24 11:24:33;;;;;;;13.47;4.27;;;10.40;88.30;;;;;;4985410;28;20640;-82
2022/02/24 11:27:05;;;;;;;13.10;4.07;;;10.20;90.10;;;;;;4984587;28;20462;-82
2022/02/24 11:29:40;;;;;;;15.37;4.40;;;10.10;89.60;;;;;;4985139;28;20439;-82
2022/02/24 11:32:09;;;;;;;14.80;4.90;;;10.20;90.30;;;;;;4984808;28;20823;-82
2022/02/24 11:34:56;;;;;;;12.30;5.53;;;10.10;88.20;;;;;;4985370;28;20482;-82
2022/02/24 11:37:24;;;;;;;13.63;4.87;;;10.10;89.60;;;;;;4984191;28;20461;-82
2022/02/24 11:40:00;;;;;;;14.80;4.83;;;10.00;88.60;;;;;;4983763;28;20466;-82
2022/02/24 11:42:29;;;;;;;8.80;4.60;;;10.20;87.60;;;;;;4983521;28;20513;-82
2022/02/24 11:44:57;;;;;;;12.77;4.83;;;10.40;87.20;;;;;;4984954;28;20483;-82
2022/02/24 11:47:24;;;;;;;10.47;4.13;;;10.50;86.00;;;;;;4984231;28;20463;-82
2022/02/24 11:50:08;;;;;;;15.50;5.17;;;10.50;86.50;;;;;;4984390;28;20964;-85
2022/02/24 11:52:54;;;;;;;10.93;5.43;;;10.60;85.20;;;;;;4984815;28;20483;-83
2022/02/24 11:55:47;;;;;;;19.57;4.87;;;10.70;85.40;;;;;;4987706;28;20483;-82
2022/02/24 11:58:37;;;;;;;10.63;4.43;;;10.80;82.90;;;;;;4986238;28;20466;-82
2022/02/24 12:01:13;;;;;;;13.10;4.40;;;11.10;81.40;;;;;;4986037;28;20466;-82
2022/02/24 12:04:06;;;;;;;12.10;4.13;;;11.50;78.30;;;;;;4984595;28;20451;-80
2022/02/24 12:06:42;;;;;;;12.10;3.80;;;11.70;76.10;;;;;;4985944;28;20443;-83
2022/02/24 12:09:10;;;;;;;8.30;4.10;;;12.40;68.50;;;;;;4983029;28;20458;-79
2022/02/24 12:11:40;;;;;;;8.03;3.80;;;13.00;62.20;;;;;;4980563;28;20475;-80
2022/02/24 12:14:42;;;;;;;11.10;3.23;;;13.40;59.60;;;;;;4983131;28;20460;-80
2022/02/24 12:17:13;;;;;;;11.23;3.40;;;14.10;54.70;;;;;;4981677;28;20458;-80
2022/02/24 12:19:43;;;;;;;8.20;2.93;;;14.00;50.90;;;;;;4980762;28;20462;-80
2022/02/24 12:22:16;;;;;;;9.70;3.50;;;14.20;49.10;;;;;;4986124;28;20483;-78
2022/02/24 12:24:44;;;;;;;12.50;3.67;;;14.10;47.80;;;;;;4986318;28;20921;-80
2022/02/24 12:27:26;;;;;;;9.13;3.10;;;14.10;50.70;;;;;;4984053;28;20451;-78
2022/02/24 12:29:56;;;;;;;6.97;3.07;;;14.40;47.70;;;;;;4981109;28;20491;-80
2022/02/24 12:32:24;;;;;;;7.10;2.33;;;13.90;47.50;;;;;;4981318;28;21015;-79
2022/02/24 12:34:53;;;;;;;7.93;2.73;;;13.60;49.00;;;;;;4981884;28;20671;-80
2022/02/24 12:37:20;;;;;;;5.67;2.20;;;13.10;50.50;;;;;;4980446;28;20833;-79
2022/02/24 12:39:47;;;;;;;5.50;2.07;;;13.00;51.20;;;;;;4982085;28;20448;-79
2022/02/24 12:42:14;;;;;;;7.63;2.90;;;12.30;50.80;;;;;;4981026;28;20483;-79
2022/02/24 12:44:41;;;;;;;11.70;3.77;;;12.10;52.20;;;;;;4980612;28;20455;-79
2022/02/24 12:47:09;;;;;;;6.20;1.90;;;12.30;51.40;;;;;;4981058;28;20461;-79
2022/02/24 12:49:43;;;;;;;6.43;2.10;;;12.10;52.00;;;;;;4981696;28;20463;-80
2022/02/24 12:52:10;;;;;;;8.23;2.60;;;12.30;51.70;;;;;;4983573;28;20493;-79
2022/02/24 12:54:37;;;;;;;5.90;1.80;;;12.50;50.50;;;;;;4983823;28;20462;-81
2022/02/24 12:57:04;;;;;;;6.90;1.70;;;12.50;49.90;;;;;;4982832;28;20458;-81
2022/02/24 12:59:31;;;;;;;11.67;2.40;;;12.90;49.00;;;;;;4983512;28;20455;-81
2022/02/24 13:01:59;;;;;;;5.77;1.80;;;13.30;47.00;;;;;;4982317;28;20482;-79
2022/02/24 13:04:26;;;;;;;5.03;1.93;;;13.70;44.30;;;;;;4983100;28;20451;-80
2022/02/24 13:06:54;;;;;;;7.40;2.00;;;13.80;40.00;;;;;;4983183;28;20824;-80
2022/02/24 13:12:08;;;;;;;7.70;1.90;;;12.90;42.30;;;;;;4999071;28;20465;-80
2022/02/24 13:14:37;;;;;;;11.27;2.63;;;13.40;44.20;;;;;;5000936;28;20457;-81
2022/02/24 13:17:08;;;;;;;6.33;1.93;;;14.50;40.20;;;;;;5002378;28;20448;-82
2022/02/24 13:19:36;;;;;;;8.20;1.53;;;14.40;39.10;;;;;;5000564;28;20483;-81
2022/02/24 13:22:06;;;;;;;7.20;1.70;;;13.90;36.70;;;;;;5002098;28;20484;-81
2022/02/24 13:24:36;;;;;;;6.23;2.10;;;14.10;39.60;;;;;;5002367;28;20464;-80